Time;durP1;ratioP1;P1;durP2;ratioP2;P2;SDS_P1;SDS_P2;PMS_P1;PMS_P2;Temp;Humidity;BMP_temperature;BMP_pressure;BME280_temperature;BME280_humidity;BME280_pressure;Samples;Min_cycle;Max_cycle;Signal;HPM_P1;HPM_P2
2023/11/30 00:02:01;;;;;;;10.52;5.35;;;2.10;1.00;;;;;;7379657;19;20015;-69
2023/11/30 00:04:31;;;;;;;7.65;5.20;;;2.20;1.00;;;;;;7377376;19;20002;-70
2023/11/30 00:07:01;;;;;;;10.77;5.55;;;2.20;1.00;;;;;;7375956;19;20044;-69
2023/11/30 00:09:34;;;;;;;6.68;5.07;;;2.20;1.00;;;;;;7377168;19;20380;-69
2023/11/30 00:12:04;;;;;;;7.53;4.80;;;2.20;1.00;;;;;;7378853;19;20018;-69
2023/11/30 00:14:34;;;;;;;6.65;4.72;;;2.20;1.00;;;;;;7376186;19;20838;-69
2023/11/30 00:17:04;;;;;;;8.65;5.82;;;2.20;1.00;;;;;;7376947;19;20086;-69
2023/11/30 00:19:35;;;;;;;10.20;4.40;;;2.10;1.00;;;;;;7396313;19;20015;-69
2023/11/30 00:22:05;;;;;;;8.60;5.70;;;2.10;1.00;;;;;;7394705;19;20474;-69
2023/11/30 00:24:38;;;;;;;7.38;5.30;;;2.00;1.00;;;;;;7378177;19;20011;-68
2023/11/30 00:27:08;;;;;;;8.50;5.30;;;1.90;1.00;;;;;;7374062;19;20050;-69
2023/11/30 00:29:38;;;;;;;8.63;5.65;;;1.80;1.00;;;;;;7377837;19;20075;-69
2023/11/30 00:32:08;;;;;;;6.40;4.78;;;1.70;1.00;;;;;;7378638;19;20011;-69
2023/11/30 00:34:39;;;;;;;7.43;5.45;;;1.60;1.00;;;;;;7378170;19;20040;-69
2023/11/30 00:37:09;;;;;;;9.82;4.95;;;1.50;1.00;;;;;;7377517;19;20090;-69
2023/11/30 00:39:42;;;;;;;6.78;4.93;;;1.40;1.00;;;;;;7373961;19;20795;-69
2023/11/30 00:42:12;;;;;;;6.97;4.55;;;1.40;1.00;;;;;;7370816;19;20022;-69
2023/11/30 00:44:42;;;;;;;8.80;5.20;;;1.30;1.00;;;;;;7376377;19;20006;-69
2023/11/30 00:47:12;;;;;;;8.63;5.65;;;1.20;1.00;;;;;;7375346;19;20057;-69
2023/11/30 00:49:42;;;;;;;8.20;5.80;;;1.20;1.00;;;;;;7376346;19;20014;-69
2023/11/30 00:52:12;;;;;;;8.55;5.55;;;1.10;1.00;;;;;;7376367;19;20014;-69
2023/11/30 00:54:44;;;;;;;9.25;5.90;;;1.00;1.00;;;;;;7374988;19;20010;-68
2023/11/30 00:57:14;;;;;;;9.77;5.43;;;1.10;1.00;;;;;;7375298;19;20014;-68
2023/11/30 00:59:44;;;;;;;8.38;5.60;;;1.10;1.00;;;;;;7375940;19;20352;-68
2023/11/30 01:02:14;;;;;;;7.07;5.38;;;1.10;1.00;;;;;;7379406;19;20021;-68
2023/11/30 01:04:44;;;;;;;8.70;5.63;;;1.10;1.00;;;;;;7378956;19;20466;-68
2023/11/30 01:07:14;;;;;;;9.95;6.10;;;1.00;1.00;;;;;;7377753;19;20011;-68
2023/11/30 01:09:47;;;;;;;9.95;6.50;;;1.00;1.00;;;;;;7376427;19;20006;-68
2023/11/30 01:12:17;;;;;;;7.20;5.53;;;1.00;1.00;;;;;;7378268;19;20027;-68
2023/11/30 01:14:47;;;;;;;8.32;6.20;;;1.00;1.00;;;;;;7377526;19;20007;-68
2023/11/30 01:17:17;;;;;;;10.23;6.60;;;1.00;1.00;;;;;;7377491;19;20028;-69
2023/11/30 01:19:47;;;;;;;9.77;6.18;;;1.00;1.00;;;;;;7376986;19;20003;-69
2023/11/30 01:22:19;;;;;;;11.23;7.57;;;1.00;1.00;;;;;;7377419;19;20010;-68
2023/11/30 01:24:52;;;;;;;13.10;7.30;;;1.00;1.00;;;;;;7377040;19;20046;-68
2023/11/30 01:27:22;;;;;;;9.88;7.05;;;1.00;1.00;;;;;;7377246;19;20121;-69
2023/11/30 01:29:53;;;;;;;12.68;8.25;;;1.10;1.00;;;;;;7376720;19;20063;-68
2023/11/30 01:32:23;;;;;;;11.65;6.68;;;1.00;1.00;;;;;;7376372;19;20015;-69
2023/11/30 01:34:53;;;;;;;11.98;8.15;;;0.90;1.00;;;;;;7375171;19;20018;-68
2023/11/30 01:37:23;;;;;;;9.18;7.32;;;1.00;1.00;;;;;;7376549;19;20470;-68
2023/11/30 01:39:56;;;;;;;12.02;8.07;;;1.00;1.00;;;;;;7377314;19;20017;-69
2023/11/30 01:42:26;;;;;;;16.73;8.63;;;1.00;1.00;;;;;;7377671;19;20085;-69
2023/11/30 01:44:56;;;;;;;11.25;7.45;;;0.90;1.00;;;;;;7377308;19;20014;-68
2023/11/30 01:47:26;;;;;;;14.80;7.63;;;0.90;1.00;;;;;;7375393;19;20003;-69
2023/11/30 01:49:56;;;;;;;11.05;8.02;;;0.80;1.00;;;;;;7377460;19;20029;-69
2023/11/30 01:52:26;;;;;;;12.00;8.52;;;0.80;1.00;;;;;;7377630;19;20017;-69
2023/11/30 01:55:02;;;;;;;10.43;7.03;;;0.90;1.00;;;;;;7376710;19;20491;-68
2023/11/30 01:57:35;;;;;;;10.68;7.70;;;0.90;1.00;;;;;;7376529;19;20026;-68
2023/11/30 02:00:07;;;;;;;11.73;7.43;;;0.80;1.00;;;;;;7376310;19;20010;-68
2023/11/30 02:02:41;;;;;;;11.23;8.00;;;0.80;1.00;;;;;;7375104;19;20491;-67
2023/11/30 02:05:08;;;;;;;12.50;7.85;;;0.80;1.00;;;;;;7375071;19;20025;-68
2023/11/30 02:07:39;;;;;;;13.48;7.55;;;0.80;1.00;;;;;;7375269;19;20066;-68
2023/11/30 02:10:12;;;;;;;12.13;7.55;;;0.90;1.00;;;;;;7376135;19;20018;-69
2023/11/30 02:12:42;;;;;;;10.07;7.05;;;0.90;1.00;;;;;;7373793;19;20007;-69
2023/11/30 02:15:12;;;;;;;10.73;7.57;;;0.80;1.00;;;;;;7372770;19;20002;-69
2023/11/30 02:17:44;;;;;;;13.63;7.90;;;0.80;1.00;;;;;;7376904;19;20041;-68
2023/11/30 02:20:15;;;;;;;12.27;7.95;;;0.70;1.00;;;;;;7376287;19;20038;-69
2023/11/30 02:22:48;;;;;;;11.98;8.15;;;0.60;1.00;;;;;;7384052;19;20433;-69
2023/11/30 02:25:18;;;;;;;12.48;7.85;;;0.50;1.00;;;;;;7381125;19;20017;-68
2023/11/30 02:27:48;;;;;;;13.40;8.32;;;0.50;1.00;;;;;;7383800;19;20011;-69
2023/11/30 02:30:18;;;;;;;13.50;8.50;;;0.40;1.00;;;;;;7383597;19;20010;-69
2023/11/30 02:32:48;;;;;;;11.38;7.55;;;0.40;1.00;;;;;;7382847;19;20496;-68
2023/11/30 02:35:18;;;;;;;13.55;7.90;;;0.50;1.00;;;;;;7387369;19;20010;-68
2023/11/30 02:37:51;;;;;;;12.82;8.02;;;0.50;1.00;;;;;;7407001;19;20044;-69
2023/11/30 02:40:22;;;;;;;14.60;8.50;;;0.40;1.00;;;;;;7388102;19;20540;-67
2023/11/30 02:42:52;;;;;;;13.02;8.93;;;0.40;1.00;;;;;;7382605;19;20014;-68
2023/11/30 02:45:22;;;;;;;12.82;8.60;;;0.40;1.00;;;;;;7381462;19;20006;-68
2023/11/30 02:47:52;;;;;;;13.75;8.50;;;0.30;1.00;;;;;;7382535;19;20040;-68
2023/11/30 02:50:22;;;;;;;12.32;8.05;;;0.30;1.00;;;;;;7382382;19;20015;-68
2023/11/30 02:52:55;;;;;;;12.75;8.70;;;0.30;1.00;;;;;;7382495;19;20014;-68
2023/11/30 02:55:25;;;;;;;13.60;8.32;;;0.30;1.00;;;;;;7381231;19;20531;-68
2023/11/30 02:57:56;;;;;;;11.35;7.35;;;0.30;1.00;;;;;;7381084;19;20010;-69
2023/11/30 03:00:26;;;;;;;11.82;8.38;;;0.30;1.00;;;;;;7381135;19;20078;-68
2023/11/30 03:02:56;;;;;;;12.38;7.65;;;0.30;1.00;;;;;;7382721;19;20044;-69
2023/11/30 03:05:26;;;;;;;13.07;7.80;;;0.30;1.00;;;;;;7380465;19;20315;-68
2023/11/30 03:07:58;;;;;;;10.65;6.72;;;0.20;1.00;;;;;;7381218;19;20042;-68
2023/11/30 03:10:28;;;;;;;10.20;6.95;;;0.30;1.00;;;;;;7381307;19;20015;-67
2023/11/30 03:12:59;;;;;;;9.50;6.00;;;0.30;1.00;;;;;;7382150;19;20570;-68
2023/11/30 03:15:32;;;;;;;9.27;7.15;;;0.30;1.00;;;;;;7380085;19;20480;-68
2023/11/30 03:18:02;;;;;;;11.18;6.28;;;0.20;1.00;;;;;;7382291;19;20546;-68
2023/11/30 03:20:35;;;;;;;8.10;5.75;;;0.30;1.00;;;;;;7382530;19;20011;-68
2023/11/30 03:23:08;;;;;;;8.45;6.22;;;0.20;1.00;;;;;;7381849;19;20419;-68
2023/11/30 03:25:38;;;;;;;10.35;6.22;;;0.30;1.00;;;;;;7381198;19;20011;-68
2023/11/30 03:28:08;;;;;;;9.85;6.38;;;0.30;1.00;;;;;;7382159;19;20082;-68
2023/11/30 03:30:40;;;;;;;9.35;6.40;;;0.30;1.00;;;;;;7381655;19;20014;-67
2023/11/30 03:33:12;;;;;;;10.40;7.25;;;0.20;1.00;;;;;;7380429;19;20019;-68
2023/11/30 03:35:42;;;;;;;9.43;6.93;;;0.20;1.00;;;;;;7380753;19;20372;-68
2023/11/30 03:38:15;;;;;;;9.57;6.57;;;0.20;1.00;;;;;;7381121;19;20035;-68
2023/11/30 03:40:48;;;;;;;12.05;7.00;;;0.20;1.00;;;;;;7380736;19;20479;-68
2023/11/30 03:43:18;;;;;;;10.70;7.30;;;0.20;1.00;;;;;;7379853;19;20035;-68
2023/11/30 03:45:48;;;;;;;10.52;6.75;;;0.30;1.00;;;;;;7381459;19;20094;-68
2023/11/30 03:48:19;;;;;;;11.63;6.90;;;0.30;1.00;;;;;;7381882;19;20005;-67
2023/11/30 03:50:49;;;;;;;11.95;6.78;;;0.30;1.00;;;;;;7382306;19;19999;-68
2023/11/30 03:53:24;;;;;;;10.95;6.93;;;0.40;1.00;;;;;;7377314;19;20070;-68
2023/11/30 03:55:54;;;;;;;10.15;7.65;;;0.40;1.00;;;;;;7377988;19;20426;-68
2023/11/30 03:58:24;;;;;;;11.63;7.40;;;0.50;1.00;;;;;;7377880;19;20023;-69
2023/11/30 04:00:54;;;;;;;11.00;6.88;;;0.50;1.00;;;;;;7380685;19;20013;-68
2023/11/30 04:03:24;;;;;;;14.15;8.05;;;0.50;1.00;;;;;;7378774;19;20017;-68
2023/11/30 04:05:54;;;;;;;14.15;8.70;;;0.60;1.00;;;;;;7378993;19;20017;-68
2023/11/30 04:08:27;;;;;;;13.63;9.57;;;0.60;1.00;;;;;;7381048;19;20109;-68
2023/11/30 04:10:57;;;;;;;12.88;9.27;;;0.50;1.00;;;;;;7380754;19;20011;-67
2023/11/30 04:13:27;;;;;;;14.35;9.32;;;0.50;1.00;;;;;;7380889;19;20420;-67
2023/11/30 04:15:57;;;;;;;16.73;10.10;;;0.50;1.00;;;;;;7378027;19;20007;-68
2023/11/30 04:18:27;;;;;;;14.98;9.63;;;0.40;1.00;;;;;;7379750;19;20017;-68
2023/11/30 04:20:57;;;;;;;16.00;10.43;;;0.50;1.00;;;;;;7379679;19;20531;-67
2023/11/30 04:23:29;;;;;;;13.65;9.02;;;0.50;1.00;;;;;;7379966;19;20015;-68
2023/11/30 04:25:59;;;;;;;15.60;10.45;;;0.40;1.00;;;;;;7378466;19;20007;-68
2023/11/30 04:28:30;;;;;;;15.90;10.18;;;0.50;1.00;;;;;;7380625;19;20345;-68
2023/11/30 04:31:00;;;;;;;14.15;9.85;;;0.50;1.00;;;;;;7378906;19;20102;-68
2023/11/30 04:33:30;;;;;;;15.23;9.18;;;0.50;1.00;;;;;;7379235;19;20027;-68
2023/11/30 04:36:01;;;;;;;15.70;10.18;;;0.50;1.00;;;;;;7379503;19;20007;-68
2023/11/30 04:38:34;;;;;;;12.98;8.57;;;0.50;1.00;;;;;;7379810;19;20047;-68
2023/11/30 04:41:04;;;;;;;14.32;9.38;;;0.50;1.00;;;;;;7379285;19;20031;-68
2023/11/30 04:43:37;;;;;;;13.48;9.05;;;0.40;1.00;;;;;;7378038;19;20010;-68
2023/11/30 04:46:08;;;;;;;12.80;9.00;;;0.40;1.00;;;;;;7378926;19;20007;-68
2023/11/30 04:48:38;;;;;;;12.73;8.75;;;0.40;1.00;;;;;;7379016;19;20051;-68
2023/11/30 04:51:11;;;;;;;14.15;8.43;;;0.40;1.00;;;;;;7379582;19;20091;-68
2023/11/30 04:53:44;;;;;;;13.02;8.35;;;0.30;1.00;;;;;;7398772;19;20014;-68
2023/11/30 04:56:14;;;;;;;15.43;9.00;;;0.30;1.00;;;;;;7393142;19;20006;-68
2023/11/30 04:58:44;;;;;;;12.77;8.52;;;0.30;1.00;;;;;;7378616;19;20057;-68
2023/11/30 05:01:14;;;;;;;11.02;8.00;;;0.40;1.00;;;;;;7378510;19;20015;-68
2023/11/30 05:03:44;;;;;;;12.48;8.63;;;0.40;1.00;;;;;;7378396;19;20014;-67
2023/11/30 05:06:15;;;;;;;11.57;8.15;;;0.40;1.00;;;;;;7378481;19;20013;-67
2023/11/30 05:08:47;;;;;;;12.85;8.35;;;0.30;1.00;;;;;;7376388;19;20017;-68
2023/11/30 05:11:17;;;;;;;14.38;9.18;;;0.20;1.00;;;;;;7378126;19;20021;-69
2023/11/30 05:13:47;;;;;;;12.75;8.32;;;0.10;1.00;;;;;;7378398;19;20007;-67
2023/11/30 05:16:17;;;;;;;13.38;8.65;;;0.10;1.00;;;;;;7379185;19;20039;-68
2023/11/30 05:18:47;;;;;;;14.57;8.85;;;0.00;1.00;;;;;;7378436;19;20512;-67
2023/11/30 05:21:18;;;;;;;14.25;9.50;;;0.00;1.00;;;;;;7378353;19;20010;-68
2023/11/30 05:23:51;;;;;;;12.18;8.55;;;0.10;1.00;;;;;;7375745;19;20007;-68
2023/11/30 05:26:21;;;;;;;12.38;8.40;;;0.10;1.00;;;;;;7373747;19;19998;-68
2023/11/30 05:28:51;;;;;;;11.00;8.43;;;0.10;1.00;;;;;;7375022;19;20006;-68
2023/11/30 05:31:23;;;;;;;12.95;8.90;;;0.10;1.00;;;;;;7375816;19;20344;-68
2023/11/30 05:33:55;;;;;;;;;;;0.10;1.00;;;;;;7376427;19;20087;-69
2023/11/30 05:36:25;;;;;;;13.32;8.40;;;0.20;1.00;;;;;;7374947;19;20348;-69
2023/11/30 05:38:58;;;;;;;13.93;8.27;;;0.20;1.00;;;;;;7377778;19;20492;-69
2023/11/30 05:41:28;;;;;;;11.98;7.72;;;0.20;1.00;;;;;;7372355;19;20007;-68
2023/11/30 05:43:58;;;;;;;14.63;8.55;;;0.20;1.00;;;;;;7376859;19;20014;-69
2023/11/30 05:46:28;;;;;;;13.38;8.63;;;0.20;1.00;;;;;;7374777;19;20023;-68
2023/11/30 05:48:58;;;;;;;14.32;9.02;;;0.10;1.00;;;;;;7377412;19;20419;-68
2023/11/30 05:51:31;;;;;;;15.27;9.73;;;0.10;1.00;;;;;;7376163;19;20673;-68
2023/11/30 05:54:04;;;;;;;14.32;9.07;;;0.00;1.00;;;;;;7376270;19;20489;-69
2023/11/30 05:56:35;;;;;;;14.88;9.20;;;0.00;1.00;;;;;;7372650;19;20024;-68
2023/11/30 05:59:05;;;;;;;14.38;9.32;;;0.10;1.00;;;;;;7376998;19;20046;-68
2023/11/30 06:01:35;;;;;;;15.77;9.93;;;0.20;1.00;;;;;;7376260;19;20014;-68
2023/11/30 06:04:05;;;;;;;13.77;8.93;;;0.20;1.00;;;;;;7376318;19;20497;-69
2023/11/30 06:06:35;;;;;;;12.15;8.82;;;0.20;1.00;;;;;;7375445;19;20471;-68
2023/11/30 06:09:08;;;;;;;14.85;9.20;;;0.20;1.00;;;;;;7376830;19;20007;-68
2023/11/30 06:11:38;;;;;;;14.35;8.90;;;0.30;1.00;;;;;;7374377;19;20011;-69
2023/11/30 06:14:09;;;;;;;11.90;8.50;;;0.30;1.00;;;;;;7376095;19;20089;-68
2023/11/30 06:16:39;;;;;;;12.10;8.75;;;0.30;1.00;;;;;;7375705;19;20007;-68
2023/11/30 06:19:09;;;;;;;11.55;7.88;;;0.40;1.00;;;;;;7375738;19;20018;-68
2023/11/30 06:21:41;;;;;;;13.20;8.57;;;0.30;1.00;;;;;;7375546;19;20018;-68
2023/11/30 06:24:14;;;;;;;11.13;7.95;;;0.30;1.00;;;;;;7372871;19;20018;-67
2023/11/30 06:26:44;;;;;;;12.27;8.25;;;0.30;1.00;;;;;;7375642;19;20014;-68
2023/11/30 06:29:15;;;;;;;14.20;8.20;;;0.30;1.00;;;;;;7375219;19;20014;-68
2023/11/30 06:31:45;;;;;;;13.57;8.45;;;0.30;1.00;;;;;;7375862;19;20329;-68
2023/11/30 06:34:15;;;;;;;14.93;8.45;;;0.20;1.00;;;;;;7373089;19;20082;-68
2023/11/30 06:36:46;;;;;;;12.18;8.52;;;0.20;1.00;;;;;;7373848;19;20022;-68
2023/11/30 06:39:18;;;;;;;12.60;8.50;;;0.20;1.00;;;;;;7376128;19;20010;-68
2023/11/30 06:41:49;;;;;;;12.20;8.00;;;0.20;1.00;;;;;;7373652;19;20094;-68
2023/11/30 06:44:22;;;;;;;13.43;8.77;;;0.20;1.00;;;;;;7374873;19;20386;-68
2023/11/30 06:46:52;;;;;;;10.48;6.50;;;0.30;1.00;;;;;;7374363;19;20530;-68
2023/11/30 06:49:22;;;;;;;12.43;7.05;;;0.40;1.00;;;;;;7375267;19;20645;-68
2023/11/30 06:51:52;;;;;;;11.80;7.65;;;0.50;1.00;;;;;;7375194;19;20451;-67
2023/11/30 06:54:25;;;;;;;15.23;9.98;;;0.50;1.00;;;;;;7373857;19;20003;-68
2023/11/30 06:56:56;;;;;;;12.02;7.28;;;0.50;1.00;;;;;;7373863;19;20023;-68
2023/11/30 06:59:26;;;;;;;11.18;7.22;;;0.50;1.00;;;;;;7373495;19;20028;-68
2023/11/30 07:01:58;;;;;;;11.80;7.25;;;0.40;1.00;;;;;;7375086;19;20077;-68
2023/11/30 07:04:28;;;;;;;10.55;6.85;;;0.40;1.00;;;;;;7372364;19;20015;-69
2023/11/30 07:06:58;;;;;;;16.08;7.13;;;0.40;1.00;;;;;;7376711;19;20007;-69
2023/11/30 07:09:31;;;;;;;13.35;7.13;;;0.50;1.00;;;;;;7390186;19;20020;-69
2023/11/30 07:12:02;;;;;;;17.17;7.57;;;0.40;1.00;;;;;;7406365;19;20030;-68
2023/11/30 07:14:32;;;;;;;12.90;7.38;;;0.40;1.00;;;;;;7383301;19;20661;-68
2023/11/30 07:17:23;;;;;;;10.80;7.40;;;0.50;1.00;;;;;;7175429;19;2003772;-68
2023/11/30 07:19:54;;;;;;;9.27;6.03;;;0.50;1.00;;;;;;7381987;19;20087;-69
2023/11/30 07:22:24;;;;;;;12.77;6.22;;;0.60;1.00;;;;;;7380177;19;20021;-67
2023/11/30 07:24:57;;;;;;;8.90;5.88;;;0.70;1.00;;;;;;7380495;19;20031;-68
2023/11/30 07:27:28;;;;;;;9.05;5.80;;;0.70;1.00;;;;;;7379026;19;20053;-67
2023/11/30 07:29:58;;;;;;;9.35;5.32;;;0.70;1.00;;;;;;7380456;19;20006;-68
2023/11/30 07:32:28;;;;;;;9.05;5.28;;;0.80;1.00;;;;;;7375871;19;20014;-67
2023/11/30 07:34:58;;;;;;;9.32;5.45;;;0.80;1.00;;;;;;7378680;19;20018;-68
2023/11/30 07:37:28;;;;;;;12.48;5.28;;;0.80;1.00;;;;;;7380376;19;20014;-70
2023/11/30 07:40:01;;;;;;;9.30;6.07;;;0.90;1.00;;;;;;7381469;19;20456;-67
2023/11/30 07:42:31;;;;;;;7.20;5.55;;;0.90;1.00;;;;;;7379830;19;20003;-67
2023/11/30 07:45:09;;;;;;;11.88;5.53;;;0.90;1.00;;;;;;7376090;19;20046;-68
2023/11/30 07:47:39;;;;;;;12.35;6.38;;;1.00;1.00;;;;;;7379512;19;20105;-68
2023/11/30 07:50:09;;;;;;;8.98;6.30;;;1.00;1.00;;;;;;7379143;19;20018;-69
2023/11/30 07:52:39;;;;;;;7.78;5.50;;;1.00;1.00;;;;;;7380312;19;20823;-68
2023/11/30 07:55:12;;;;;;;7.20;5.18;;;1.00;1.00;;;;;;7377920;19;20049;-68
2023/11/30 07:57:42;;;;;;;10.32;6.20;;;1.00;1.00;;;;;;7378818;19;20048;-68
2023/11/30 08:00:15;;;;;;;9.18;5.60;;;1.10;1.00;;;;;;7378836;19;20016;-68
2023/11/30 08:02:45;;;;;;;9.38;5.70;;;1.10;1.00;;;;;;7379711;19;20025;-68
2023/11/30 08:05:16;;;;;;;10.15;5.80;;;1.10;1.00;;;;;;7379313;19;20010;-69
2023/11/30 08:07:46;;;;;;;14.60;7.30;;;1.10;1.00;;;;;;7379836;19;20006;-69
2023/11/30 08:10:19;;;;;;;9.25;5.88;;;1.20;1.00;;;;;;7380461;19;20021;-69
2023/11/30 08:12:50;;;;;;;7.72;5.10;;;1.20;1.00;;;;;;7379085;19;20010;-69
2023/11/30 08:15:19;;;;;;;10.55;5.93;;;1.20;1.00;;;;;;7378319;19;20043;-68
2023/11/30 08:17:50;;;;;;;7.72;5.22;;;1.10;1.00;;;;;;7378796;19;20425;-69
2023/11/30 08:20:20;;;;;;;8.10;5.68;;;1.10;1.00;;;;;;7378964;19;20013;-68
2023/11/30 08:22:51;;;;;;;34.78;20.08;;;1.10;1.00;;;;;;7377698;19;20027;-68
2023/11/30 08:25:24;;;;;;;12.15;6.53;;;1.30;1.00;;;;;;7379243;19;20508;-68
2023/11/30 08:27:54;;;;;;;9.32;6.78;;;1.30;1.00;;;;;;7379537;19;20036;-68
2023/11/30 08:30:26;;;;;;;10.63;7.00;;;1.30;1.00;;;;;;7379397;19;20077;-68
2023/11/30 08:32:56;;;;;;;10.75;6.25;;;1.30;1.00;;;;;;7380254;19;20020;-68
2023/11/30 08:35:27;;;;;;;9.20;6.30;;;1.30;1.00;;;;;;7377499;19;20490;-69
2023/11/30 08:37:57;;;;;;;8.45;6.60;;;1.40;1.00;;;;;;7379225;19;20006;-68
2023/11/30 08:40:30;;;;;;;10.15;5.90;;;1.40;1.00;;;;;;7378556;19;20010;-69
2023/11/30 08:43:00;;;;;;;8.63;6.90;;;1.40;1.00;;;;;;7377512;19;20776;-68
2023/11/30 08:45:32;;;;;;;8.68;6.68;;;1.40;1.00;;;;;;7375754;19;20010;-69
2023/11/30 08:48:02;;;;;;;15.27;7.57;;;1.50;1.00;;;;;;7377542;19;20006;-69
2023/11/30 08:50:32;;;;;;;11.57;6.95;;;1.50;1.00;;;;;;7378170;19;20014;-68
2023/11/30 08:53:03;;;;;;;10.65;7.13;;;1.60;1.00;;;;;;7375159;19;20355;-69
2023/11/30 08:55:36;;;;;;;11.45;7.28;;;1.60;1.00;;;;;;7378057;19;20030;-68
2023/11/30 08:58:06;;;;;;;12.25;6.53;;;1.60;1.00;;;;;;7377071;19;20010;-69
2023/11/30 09:00:39;;;;;;;9.27;6.75;;;1.70;1.00;;;;;;7377592;19;20015;-68
2023/11/30 09:03:09;;;;;;;10.77;6.83;;;1.80;1.00;;;;;;7379783;19;20006;-69
2023/11/30 09:05:40;;;;;;;10.20;7.40;;;1.70;1.00;;;;;;7374836;19;20018;-68
2023/11/30 09:08:10;;;;;;;10.35;6.50;;;1.70;1.00;;;;;;7377138;19;20014;-70
2023/11/30 09:10:43;;;;;;;9.80;6.97;;;1.60;1.00;;;;;;7379037;19;20014;-68
2023/11/30 09:13:13;;;;;;;10.70;6.57;;;1.60;1.00;;;;;;7375003;19;20010;-69
2023/11/30 09:15:43;;;;;;;17.38;6.97;;;1.80;1.00;;;;;;7375091;19;20081;-68
2023/11/30 09:18:13;;;;;;;11.00;6.60;;;1.80;1.00;;;;;;7376012;19;20044;-69
2023/11/30 09:20:43;;;;;;;12.90;6.63;;;1.90;1.00;;;;;;7376795;19;20039;-69
2023/11/30 09:23:13;;;;;;;11.88;6.63;;;2.00;1.00;;;;;;7376743;19;20017;-69
2023/11/30 09:25:46;;;;;;;13.93;7.15;;;2.00;1.00;;;;;;7384512;19;20029;-68
2023/11/30 09:28:16;;;;;;;10.00;7.43;;;2.00;1.00;;;;;;7398878;19;20013;-69
2023/11/30 09:30:46;;;;;;;10.27;7.35;;;2.10;1.00;;;;;;7375224;19;20018;-69
2023/11/30 09:33:17;;;;;;;15.40;8.57;;;2.10;1.00;;;;;;7374245;19;20006;-69
2023/11/30 09:35:47;;;;;;;11.48;7.20;;;2.20;1.00;;;;;;7375234;19;20034;-69
2023/11/30 09:38:17;;;;;;;11.68;7.10;;;2.30;1.00;;;;;;7377075;19;20011;-69
2023/11/30 09:40:50;;;;;;;12.55;7.80;;;2.30;1.00;;;;;;7375241;19;20013;-69
2023/11/30 09:43:20;;;;;;;12.80;7.80;;;2.40;1.00;;;;;;7376233;19;20017;-69
2023/11/30 09:45:51;;;;;;;12.65;7.85;;;2.40;1.00;;;;;;7374109;19;20017;-69
2023/11/30 09:48:21;;;;;;;11.05;7.35;;;2.40;1.00;;;;;;7374639;19;20010;-70
2023/11/30 09:50:51;;;;;;;10.88;7.15;;;2.50;1.00;;;;;;7374069;19;20006;-69
2023/11/30 09:53:22;;;;;;;10.38;7.30;;;2.20;1.00;;;;;;7374417;19;20011;-68
2023/11/30 09:55:55;;;;;;;14.90;8.25;;;2.20;1.00;;;;;;7375654;19;20577;-69
2023/11/30 09:58:25;;;;;;;12.90;8.32;;;2.20;1.00;;;;;;7376484;19;20032;-69
2023/11/30 10:00:55;;;;;;;10.73;7.20;;;2.20;1.00;;;;;;7375595;19;20018;-70
2023/11/30 10:03:34;;;;;;;12.18;7.90;;;2.20;1.00;;;;;;7373978;19;20365;-68
2023/11/30 10:06:05;;;;;;;12.82;8.20;;;2.30;1.00;;;;;;7373483;19;20026;-68
2023/11/30 10:08:35;;;;;;;12.55;8.07;;;2.40;1.00;;;;;;7375018;19;23052;-68
2023/11/30 10:11:08;;;;;;;11.15;7.90;;;2.50;1.00;;;;;;7375223;19;21417;-69
2023/11/30 10:13:39;;;;;;;15.52;8.45;;;2.60;1.00;;;;;;7375387;19;20427;-68
2023/11/30 10:16:11;;;;;;;13.45;8.13;;;2.70;1.00;;;;;;7375024;19;20042;-69
2023/11/30 10:18:42;;;;;;;14.95;8.77;;;2.80;1.00;;;;;;7376241;19;20024;-69
2023/11/30 10:21:12;;;;;;;13.63;8.48;;;2.80;1.00;;;;;;7376525;19;20776;-70
2023/11/30 10:23:43;;;;;;;14.63;8.30;;;3.00;1.00;;;;;;7375844;19;20018;-69
2023/11/30 10:26:18;;;;;;;15.77;9.43;;;3.10;1.00;;;;;;7375047;19;20391;-69
2023/11/30 10:28:48;;;;;;;12.93;8.07;;;3.10;1.00;;;;;;7373407;19;20022;-69
2023/11/30 10:31:22;;;;;;;12.13;8.68;;;3.00;1.00;;;;;;7374895;19;20018;-69
2023/11/30 10:33:58;;;;;;;13.45;8.75;;;3.00;1.00;;;;;;7374988;19;20021;-69
2023/11/30 10:36:30;;;;;;;13.82;8.63;;;3.10;1.00;;;;;;7375080;19;20030;-69
2023/11/30 10:39:03;;;;;;;13.38;8.70;;;3.20;1.00;;;;;;7374491;19;20011;-68
2023/11/30 10:41:45;;;;;;;12.77;8.77;;;3.30;1.00;;;;;;7374998;19;20527;-69
2023/11/30 10:44:18;;;;;;;12.32;8.73;;;3.40;1.00;;;;;;7378331;19;20013;-70
2023/11/30 10:46:49;;;;;;;26.75;16.05;;;3.50;1.00;;;;;;7378990;19;20147;-69
2023/11/30 10:49:21;;;;;;;13.80;8.43;;;3.60;1.00;;;;;;7381455;19;20011;-69
2023/11/30 10:51:53;;;;;;;12.70;8.20;;;3.70;1.00;;;;;;7381599;19;20458;-69
2023/11/30 10:54:31;;;;;;;16.88;8.35;;;3.60;1.00;;;;;;7381089;19;20026;-68
2023/11/30 10:57:05;;;;;;;23.45;9.57;;;3.60;1.00;;;;;;7381050;19;20858;-70
2023/11/30 10:59:35;;;;;;;15.10;8.85;;;3.70;1.00;;;;;;7379950;19;20029;-68
2023/11/30 11:02:09;;;;;;;22.55;10.73;;;3.70;1.00;;;;;;7381822;19;20022;-69
2023/11/30 11:04:42;;;;;;;13.00;8.68;;;3.60;1.00;;;;;;7380215;19;20030;-69
2023/11/30 11:07:15;;;;;;;15.57;8.73;;;3.60;1.00;;;;;;7379886;19;20013;-69
2023/11/30 11:09:47;;;;;;;23.30;14.32;;;3.70;1.00;;;;;;7383193;19;20430;-69
2023/11/30 11:12:24;;;;;;;24.92;11.20;;;3.70;1.00;;;;;;7382541;19;20010;-69
2023/11/30 11:15:08;;;;;;;14.65;9.25;;;3.90;1.00;;;;;;7375509;19;20042;-69
2023/11/30 11:17:49;;;;;;;12.95;9.02;;;3.70;1.00;;;;;;7380715;19;20052;-69
2023/11/30 11:20:25;;;;;;;14.45;9.75;;;3.50;1.00;;;;;;7378305;19;20426;-69
2023/11/30 11:22:57;;;;;;;15.07;9.50;;;3.80;1.00;;;;;;7379130;19;20035;-69
2023/11/30 11:25:27;;;;;;;16.02;9.82;;;3.90;1.00;;;;;;7378293;19;20011;-69
2023/11/30 11:28:00;;;;;;;14.57;9.27;;;4.00;1.00;;;;;;7378529;19;20014;-69
2023/11/30 11:30:30;;;;;;;16.40;8.85;;;4.10;1.00;;;;;;7379137;19;20018;-69
2023/11/30 11:33:03;;;;;;;18.38;9.73;;;4.20;1.00;;;;;;7380006;19;20010;-69
2023/11/30 11:35:33;;;;;;;13.43;9.18;;;4.20;1.00;;;;;;7379706;19;20499;-69
2023/11/30 11:38:03;;;;;;;12.75;9.35;;;4.10;1.00;;;;;;7378649;19;20021;-68
2023/11/30 11:40:41;;;;;;;15.93;9.43;;;4.10;1.00;;;;;;7377821;19;20039;-69
2023/11/30 11:43:15;;;;;;;14.23;8.63;;;4.20;1.00;;;;;;7400351;19;20495;-69
2023/11/30 11:45:45;;;;;;;20.65;10.25;;;4.10;1.00;;;;;;7390837;19;20086;-69
2023/11/30 11:48:15;;;;;;;13.63;9.07;;;4.00;1.00;;;;;;7378869;19;20006;-69
2023/11/30 11:50:45;;;;;;;12.00;8.65;;;3.90;1.00;;;;;;7379329;19;20022;-69
2023/11/30 11:53:15;;;;;;;15.93;9.93;;;4.00;1.00;;;;;;7377517;19;20015;-69
2023/11/30 11:55:45;;;;;;;17.92;9.57;;;3.90;1.00;;;;;;7378121;19;20053;-68
2023/11/30 11:58:18;;;;;;;13.55;9.32;;;4.00;1.00;;;;;;7378268;19;20007;-69
2023/11/30 12:00:55;;;;;;;29.25;16.83;;;4.00;1.00;;;;;;7378847;19;20471;-69
2023/11/30 12:03:25;;;;;;;13.32;8.90;;;4.20;1.00;;;;;;7376166;19;20023;-69
2023/11/30 12:05:59;;;;;;;12.43;8.40;;;4.20;1.00;;;;;;7378334;19;20018;-69
2023/11/30 12:08:34;;;;;;;13.55;9.73;;;4.10;1.00;;;;;;7376363;19;19999;-69
2023/11/30 12:11:07;;;;;;;16.65;9.82;;;4.20;1.00;;;;;;7379561;19;20041;-68
2023/11/30 12:13:40;;;;;;;12.35;9.50;;;4.30;1.00;;;;;;7379171;19;20011;-69
2023/11/30 12:16:11;;;;;;;17.05;9.50;;;4.10;1.00;;;;;;7372697;19;20011;-69
2023/11/30 12:18:41;;;;;;;14.77;9.75;;;3.90;1.00;;;;;;7376886;19;20018;-70
2023/11/30 12:21:11;;;;;;;15.60;10.40;;;4.10;1.00;;;;;;7378259;19;20040;-69
2023/11/30 12:23:41;;;;;;;14.25;9.77;;;4.10;1.00;;;;;;7377791;19;20019;-70
2023/11/30 12:26:11;;;;;;;13.23;8.90;;;4.10;1.00;;;;;;7376844;19;20015;-70
2023/11/30 12:28:44;;;;;;;13.80;9.48;;;4.10;1.00;;;;;;7377328;19;20014;-70
2023/11/30 12:31:14;;;;;;;17.13;10.75;;;4.10;1.00;;;;;;7379905;19;20022;-70
2023/11/30 12:33:44;;;;;;;20.05;9.57;;;4.10;1.00;;;;;;7380056;19;20915;-70
2023/11/30 12:36:14;;;;;;;13.90;10.40;;;4.10;1.00;;;;;;7378812;19;20027;-69
2023/11/30 12:38:45;;;;;;;15.43;9.93;;;4.10;1.00;;;;;;7377663;19;20344;-70
2023/11/30 12:41:15;;;;;;;14.50;9.73;;;4.00;1.00;;;;;;7378877;19;20014;-71
2023/11/30 12:43:47;;;;;;;16.30;10.20;;;3.80;1.00;;;;;;7378423;19;20333;-70
2023/11/30 12:46:18;;;;;;;15.93;9.93;;;3.80;1.00;;;;;;7377501;19;20006;-69
2023/11/30 12:48:48;;;;;;;20.88;9.85;;;3.80;1.00;;;;;;7379275;19;20037;-68
2023/11/30 12:51:19;;;;;;;18.17;11.07;;;3.90;1.00;;;;;;7377414;19;20431;-70
2023/11/30 12:53:51;;;;;;;21.55;10.38;;;3.80;1.00;;;;;;7377818;19;20030;-69
2023/11/30 12:56:22;;;;;;;13.77;10.52;;;3.80;1.00;;;;;;7376832;19;20014;-69
2023/11/30 12:58:54;;;;;;;16.55;10.40;;;3.80;1.00;;;;;;7375034;19;20354;-69
2023/11/30 13:01:25;;;;;;;17.48;10.18;;;3.80;1.00;;;;;;7373328;19;20013;-69
2023/11/30 13:03:56;;;;;;;17.40;9.85;;;3.80;1.00;;;;;;7376751;19;20063;-70
2023/11/30 13:06:26;;;;;;;18.83;9.82;;;3.80;1.00;;;;;;7374607;19;20010;-70
2023/11/30 13:08:56;;;;;;;17.83;10.93;;;3.80;1.00;;;;;;7376052;19;20031;-70
2023/11/30 13:11:26;;;;;;;17.58;10.30;;;3.80;1.00;;;;;;7376243;19;20022;-70
2023/11/30 13:14:01;;;;;;;19.63;10.60;;;3.80;1.00;;;;;;7376328;19;20030;-69
2023/11/30 13:16:31;;;;;;;14.88;9.88;;;3.90;1.00;;;;;;7374986;19;20002;-70
2023/11/30 13:19:01;;;;;;;19.60;10.85;;;3.80;1.00;;;;;;7376347;19;20013;-69